createdAt,value
2023-06-13T00:01:53.863Z,1012.2
2023-06-13T00:04:55.031Z,1012.2
2023-06-13T00:07:53.493Z,1012.2
2023-06-13T00:10:55.382Z,1012.2
2023-06-13T00:13:53.437Z,1012.2
2023-06-13T00:16:53.359Z,1012.2
2023-06-13T00:19:53.942Z,1012.2
2023-06-13T00:22:53.430Z,1012.2
2023-06-13T00:25:53.545Z,1012.2
2023-06-13T00:28:53.427Z,1012.2
2023-06-13T00:31:53.964Z,1012.2
2023-06-13T00:34:53.587Z,1012.1
2023-06-13T00:37:53.659Z,1012.1
2023-06-13T00:40:53.425Z,1012.2
2023-06-13T00:43:53.422Z,1012.1
2023-06-13T00:46:53.538Z,1012.1
2023-06-13T00:49:53.519Z,1012.1
2023-06-13T00:52:53.390Z,1012.1
2023-06-13T00:55:53.305Z,1012.1
2023-06-13T00:58:53.419Z,1012.1
2023-06-13T01:01:53.829Z,1012.1
2023-06-13T01:04:53.804Z,1012.1
2023-06-13T01:07:53.344Z,1012.0
2023-06-13T01:10:53.363Z,1012.0
2023-06-13T01:13:53.348Z,1012.1
2023-06-13T01:16:53.636Z,1012.0
2023-06-13T01:19:53.315Z,1012.0
2023-06-13T01:22:53.316Z,1012.0
2023-06-13T01:25:53.402Z,1012.0
2023-06-13T01:28:53.374Z,1012.0
2023-06-13T01:31:53.854Z,1012.0
2023-06-13T01:34:53.436Z,1012.0
2023-06-13T01:37:53.324Z,1012.0
2023-06-13T01:40:53.335Z,1012.0
2023-06-13T01:43:53.665Z,1012.0
2023-06-13T01:46:53.493Z,1012.0
2023-06-13T01:49:53.384Z,1012.0
2023-06-13T01:52:53.347Z,1012.0
2023-06-13T01:55:53.325Z,1012.0
2023-06-13T01:58:53.372Z,1012.0
2023-06-13T02:01:53.970Z,1012.0
2023-06-13T02:04:53.705Z,1012.0
2023-06-13T02:07:53.285Z,1012.0
2023-06-13T02:10:53.366Z,1012.0
2023-06-13T02:13:53.399Z,1012.0
2023-06-13T02:16:53.494Z,1012.0
2023-06-13T02:19:53.592Z,1012.0
2023-06-13T02:22:53.416Z,1012.0
2023-06-13T02:25:53.356Z,1012.0
2023-06-13T02:28:53.358Z,1012.0
2023-06-13T02:31:53.689Z,1011.9
2023-06-13T02:34:53.385Z,1012.0
2023-06-13T02:37:53.353Z,1012.0
2023-06-13T02:40:53.393Z,1012.0
2023-06-13T02:43:53.423Z,1012.0
2023-06-13T02:46:53.401Z,1012.0
2023-06-13T02:49:54.097Z,1012.0
2023-06-13T02:52:53.411Z,1012.0
2023-06-13T02:55:53.335Z,1012.0
2023-06-13T02:58:53.358Z,1012.0
2023-06-13T03:01:53.864Z,1012.0
2023-06-13T03:04:54.072Z,1012.0
2023-06-13T03:07:56.103Z,1012.0
2023-06-13T03:10:54.200Z,1012.0
2023-06-13T03:13:53.247Z,1012.0
2023-06-13T03:16:53.499Z,1012.1
2023-06-13T03:20:00.519Z,1012.1
2023-06-13T03:22:54.738Z,1012.1
2023-06-13T03:25:53.589Z,1012.1
2023-06-13T03:28:53.362Z,1012.0
2023-06-13T03:31:53.943Z,1012.1
2023-06-13T03:34:53.359Z,1012.1
2023-06-13T03:37:53.325Z,1012.1
2023-06-13T03:40:53.329Z,1012.1
2023-06-13T03:43:53.325Z,1012.1
2023-06-13T03:46:53.513Z,1012.1
2023-06-13T03:49:55.180Z,1012.1
2023-06-13T03:52:53.408Z,1012.1
2023-06-13T03:55:55.556Z,1012.1
2023-06-13T03:58:53.549Z,1012.1
2023-06-13T04:01:56.866Z,1012.1
2023-06-13T04:04:54.030Z,1012.1
2023-06-13T04:08:01.601Z,1012.2
2023-06-13T04:10:54.609Z,1012.2
2023-06-13T04:13:53.357Z,1012.2
2023-06-13T04:16:53.560Z,1012.2
2023-06-13T04:19:53.550Z,1012.2
2023-06-13T04:22:53.642Z,1012.2
2023-06-13T04:25:53.539Z,1012.2
2023-06-13T04:28:53.381Z,1012.2
2023-06-13T04:31:54.090Z,1012.2
2023-06-13T04:34:53.986Z,1012.2
2023-06-13T04:37:53.461Z,1012.2
2023-06-13T04:40:53.413Z,1012.2
2023-06-13T04:43:53.985Z,1012.2
2023-06-13T04:46:57.390Z,1012.2
2023-06-13T04:49:53.636Z,1012.1
2023-06-13T04:52:53.887Z,1012.1
2023-06-13T04:55:53.445Z,1012.1
2023-06-13T04:58:53.358Z,1012.2
2023-06-13T05:01:54.117Z,1012.2
2023-06-13T05:04:53.727Z,1012.2
2023-06-13T05:07:53.405Z,1012.2
2023-06-13T05:10:53.663Z,1012.2
2023-06-13T05:13:53.720Z,1012.3
2023-06-13T05:16:53.784Z,1012.3
2023-06-13T05:19:54.481Z,1012.4
2023-06-13T05:22:53.356Z,1012.4
2023-06-13T05:25:55.527Z,1012.4
2023-06-13T05:28:53.311Z,1012.4
2023-06-13T05:31:54.179Z,1012.4
2023-06-13T05:34:53.446Z,1012.4
2023-06-13T05:37:53.345Z,1012.4
2023-06-13T05:40:53.361Z,1012.5
2023-06-13T05:43:53.724Z,1012.5
2023-06-13T05:46:53.424Z,1012.5
2023-06-13T05:49:53.746Z,1012.5
2023-06-13T05:52:53.470Z,1012.6
2023-06-13T05:55:53.404Z,1012.5
2023-06-13T05:58:53.371Z,1012.4
2023-06-13T06:01:58.311Z,1012.5
2023-06-13T06:04:54.766Z,1012.5
2023-06-13T06:07:58.349Z,1012.4
2023-06-13T06:10:53.371Z,1012.4
2023-06-13T06:13:53.427Z,1012.5
2023-06-13T06:16:53.347Z,1012.5
2023-06-13T06:19:53.993Z,1012.5
2023-06-13T06:22:54.092Z,1012.5
2023-06-13T06:25:57.619Z,1012.5
2023-06-13T06:28:53.660Z,1012.4
2023-06-13T06:31:54.011Z,1012.5
2023-06-13T06:34:53.534Z,1012.5
2023-06-13T06:37:53.358Z,1012.5
2023-06-13T06:40:53.489Z,1012.5
2023-06-13T06:43:53.295Z,1012.5
2023-06-13T06:46:55.620Z,1012.5
2023-06-13T06:49:53.401Z,1012.5
2023-06-13T06:52:53.733Z,1012.5
2023-06-13T06:55:53.335Z,1012.5
2023-06-13T06:58:53.312Z,1012.5
2023-06-13T07:01:54.257Z,1012.5
2023-06-13T07:04:54.065Z,1012.6
2023-06-13T07:08:00.563Z,1012.5
2023-06-13T07:10:53.351Z,1012.5
2023-06-13T07:13:53.360Z,1012.4
2023-06-13T07:16:53.570Z,1012.5
2023-06-13T07:19:53.451Z,1012.5
2023-06-13T07:22:54.932Z,1012.5
2023-06-13T07:26:00.908Z,1012.4
2023-06-13T07:28:53.350Z,1012.5
2023-06-13T07:31:53.935Z,1012.5
2023-06-13T07:35:22.029Z,1012.5
2023-06-13T07:37:53.285Z,1012.5
2023-06-13T07:40:54.143Z,1012.5
2023-06-13T07:43:53.451Z,1012.5
2023-06-13T07:46:53.626Z,1012.4
2023-06-13T07:49:53.531Z,1012.4
2023-06-13T07:52:53.420Z,1012.4
2023-06-13T07:55:53.355Z,1012.4
2023-06-13T07:59:14.188Z,1012.4
2023-06-13T08:01:53.703Z,1012.4
2023-06-13T08:05:04.558Z,1012.4
2023-06-13T08:07:53.346Z,1012.4
2023-06-13T08:10:53.829Z,1012.4
2023-06-13T08:13:53.616Z,1012.4
2023-06-13T08:19:53.556Z,1012.4
2023-06-13T08:22:53.449Z,1012.4
2023-06-13T08:25:53.638Z,1012.3
2023-06-13T08:28:53.475Z,1012.5
2023-06-13T08:32:13.838Z,1012.4
2023-06-13T08:35:05.525Z,1012.3
2023-06-13T08:38:03.256Z,1012.4
2023-06-13T08:40:53.506Z,1012.4
2023-06-13T08:43:53.573Z,1012.4
2023-06-13T08:46:56.547Z,1012.5
2023-06-13T08:49:53.970Z,1012.4
2023-06-13T08:52:53.475Z,1012.3
2023-06-13T08:56:20.716Z,1012.3
2023-06-13T08:58:53.431Z,1012.3
2023-06-13T09:01:53.783Z,1012.3
2023-06-13T09:04:57.294Z,1012.2
2023-06-13T09:07:55.423Z,1012.2
2023-06-13T09:10:53.537Z,1012.3
2023-06-13T09:13:53.725Z,1012.2
2023-06-13T09:16:54.261Z,1012.3
2023-06-13T09:19:53.800Z,1012.2
2023-06-13T09:22:55.559Z,1012.2
2023-06-13T09:25:53.686Z,1012.3
2023-06-13T09:28:53.474Z,1012.3
2023-06-13T09:31:54.191Z,1012.2
2023-06-13T09:34:53.493Z,1012.2
2023-06-13T09:37:56.780Z,1012.2
2023-06-13T09:41:03.057Z,1012.3
2023-06-13T09:44:05.665Z,1012.2
2023-06-13T09:46:53.888Z,1012.2
2023-06-13T09:50:04.742Z,1012.2
2023-06-13T09:52:53.412Z,1012.1
2023-06-13T09:55:56.212Z,1012.2
2023-06-13T09:59:20.872Z,1012.2
2023-06-13T10:01:54.076Z,1012.2
2023-06-13T10:05:03.674Z,1012.0
2023-06-13T10:07:53.550Z,1012.1
2023-06-13T10:10:53.393Z,1012.2
2023-06-13T10:13:53.552Z,1012.0
2023-06-13T10:17:07.443Z,1012.1
2023-06-13T10:19:53.641Z,1012.1
2023-06-13T10:23:03.202Z,1012.2
2023-06-13T10:25:53.677Z,1012.1
2023-06-13T10:28:56.547Z,1012.1
2023-06-13T10:31:53.944Z,1012.1
2023-06-13T10:34:53.387Z,1012.1
2023-06-13T10:37:57.484Z,1012.0
2023-06-13T10:40:53.417Z,1012.0
2023-06-13T10:43:53.452Z,1011.9
2023-06-13T10:46:53.842Z,1011.9
2023-06-13T10:49:53.502Z,1011.9
2023-06-13T10:52:53.396Z,1011.9
2023-06-13T10:55:53.423Z,1011.8
2023-06-13T10:58:53.344Z,1012.0
2023-06-13T11:01:55.492Z,1011.9
2023-06-13T11:04:53.844Z,1011.8
2023-06-13T11:07:53.429Z,1011.7
2023-06-13T11:10:53.534Z,1011.6
2023-06-13T11:13:54.251Z,1011.6
2023-06-13T11:16:54.041Z,1011.6
2023-06-13T11:19:53.518Z,1011.5
2023-06-13T11:22:53.463Z,1011.5
2023-06-13T11:25:57.129Z,1011.5
2023-06-13T11:28:53.397Z,1011.6
2023-06-13T11:31:55.502Z,1011.5
2023-06-13T11:34:53.585Z,1011.6
2023-06-13T11:37:55.168Z,1011.6
2023-06-13T11:41:08.674Z,1011.5
2023-06-13T11:43:53.509Z,1011.5
2023-06-13T11:46:53.750Z,1011.5
2023-06-13T11:50:03.837Z,1011.5
2023-06-13T11:52:53.514Z,1011.7
2023-06-13T11:55:53.832Z,1011.6
2023-06-13T11:58:53.557Z,1011.6
2023-06-13T12:01:55.917Z,1011.4
2023-06-13T12:04:54.508Z,1011.4
2023-06-13T12:07:53.435Z,1011.4
2023-06-13T12:10:55.353Z,1011.4
2023-06-13T12:13:53.457Z,1011.3
2023-06-13T12:16:54.036Z,1011.3
2023-06-13T12:19:53.812Z,1011.3
2023-06-13T12:22:53.493Z,1011.5
2023-06-13T12:25:54.025Z,1011.4
2023-06-13T12:28:53.448Z,1011.4
2023-06-13T12:31:53.681Z,1011.4
2023-06-13T12:34:53.540Z,1011.3
2023-06-13T12:37:53.534Z,1011.3
2023-06-13T12:40:53.549Z,1011.2
2023-06-13T12:43:53.436Z,1011.3
2023-06-13T12:46:54.015Z,1011.2
2023-06-13T12:49:53.671Z,1011.3
2023-06-13T12:52:55.138Z,1011.2
2023-06-13T12:55:53.710Z,1011.2
2023-06-13T12:58:53.918Z,1011.2
2023-06-13T13:01:54.321Z,1011.1
2023-06-13T13:07:53.620Z,1011.1
2023-06-13T13:10:53.477Z,1011.1
2023-06-13T13:13:53.656Z,1011.0
2023-06-13T13:16:55.876Z,1011.0
2023-06-13T13:19:53.629Z,1011.0
2023-06-13T13:22:53.382Z,1011.1
2023-06-13T13:28:53.632Z,1011.0
2023-06-13T13:32:04.986Z,1011.0
2023-06-13T13:35:03.529Z,1011.0
2023-06-13T13:37:53.366Z,1010.9
2023-06-13T13:40:53.467Z,1010.9
2023-06-13T13:44:03.150Z,1010.9
2023-06-13T13:46:53.754Z,1010.9
2023-06-13T13:49:54.768Z,1010.9
2023-06-13T13:52:53.440Z,1010.8
2023-06-13T13:55:53.458Z,1010.8
2023-06-13T13:58:54.068Z,1010.8
2023-06-13T14:01:54.199Z,1010.8
2023-06-13T14:04:54.319Z,1010.8
2023-06-13T14:07:53.485Z,1010.8
2023-06-13T14:10:55.949Z,1010.7
2023-06-13T14:13:54.111Z,1010.7
2023-06-13T14:16:55.326Z,1010.7
2023-06-13T14:19:54.717Z,1010.7
2023-06-13T14:22:55.532Z,1010.6
2023-06-13T14:25:53.846Z,1010.6
2023-06-13T14:28:53.549Z,1010.7
2023-06-13T14:32:03.830Z,1010.6
2023-06-13T14:34:56.160Z,1010.7
2023-06-13T14:37:55.276Z,1010.6
2023-06-13T14:40:53.709Z,1010.7
2023-06-13T14:43:53.769Z,1010.7
2023-06-13T14:46:54.081Z,1010.5
2023-06-13T14:49:53.713Z,1010.6
2023-06-13T14:52:53.486Z,1010.6
2023-06-13T14:55:53.337Z,1010.7
2023-06-13T14:58:53.461Z,1010.6
2023-06-13T15:01:53.926Z,1010.5
2023-06-13T15:04:54.545Z,1010.5
2023-06-13T15:07:53.392Z,1010.5
2023-06-13T15:10:54.320Z,1010.5
2023-06-13T15:13:53.432Z,1010.5
2023-06-13T15:16:53.732Z,1010.4
2023-06-13T15:19:53.549Z,1010.4
2023-06-13T15:22:53.464Z,1010.4
2023-06-13T15:25:53.713Z,1010.4
2023-06-13T15:28:53.523Z,1010.3
2023-06-13T15:31:54.049Z,1010.4
2023-06-13T15:34:53.520Z,1010.4
2023-06-13T15:37:53.405Z,1010.3
2023-06-13T15:40:53.444Z,1010.5
2023-06-13T15:43:53.399Z,1010.4
2023-06-13T15:46:53.662Z,1010.2
2023-06-13T15:49:53.619Z,1010.3
2023-06-13T15:52:53.529Z,1010.2
2023-06-13T15:55:54.466Z,1010.2
2023-06-13T15:58:55.598Z,1010.3
2023-06-13T16:01:55.860Z,1010.3
2023-06-13T16:04:54.077Z,1010.4
2023-06-13T16:07:53.546Z,1010.2
2023-06-13T16:10:53.386Z,1010.2
2023-06-13T16:13:55.697Z,1010.3
2023-06-13T16:16:53.707Z,1010.3
2023-06-13T16:19:54.149Z,1010.2
2023-06-13T16:22:54.385Z,1010.3
2023-06-13T16:25:53.618Z,1010.2
2023-06-13T16:28:53.970Z,1010.3
2023-06-13T16:31:53.853Z,1010.2
2023-06-13T16:34:53.947Z,1010.2
2023-06-13T16:37:53.395Z,1010.2
2023-06-13T16:40:53.502Z,1010.1
2023-06-13T16:43:53.598Z,1010.1
2023-06-13T16:46:53.885Z,1010.1
2023-06-13T16:49:53.477Z,1010.3
2023-06-13T16:52:53.350Z,1010.2
2023-06-13T16:55:53.420Z,1010.2
2023-06-13T16:58:53.451Z,1010.3
2023-06-13T17:01:53.628Z,1010.2
2023-06-13T17:04:54.065Z,1010.2
2023-06-13T17:07:53.379Z,1010.3
2023-06-13T17:10:53.554Z,1010.3
2023-06-13T17:13:53.342Z,1010.2
2023-06-13T17:16:54.495Z,1010.2
2023-06-13T17:19:53.579Z,1010.2
2023-06-13T17:22:54.319Z,1010.3
2023-06-13T17:25:54.020Z,1010.3
2023-06-13T17:28:55.253Z,1010.3
2023-06-13T17:31:53.640Z,1010.3
2023-06-13T17:35:03.407Z,1010.4
2023-06-13T17:37:53.426Z,1010.4
2023-06-13T17:40:53.522Z,1010.4
2023-06-13T17:43:53.411Z,1010.4
2023-06-13T17:46:55.276Z,1010.4
2023-06-13T17:49:53.988Z,1010.4
2023-06-13T17:52:53.389Z,1010.4
2023-06-13T17:55:53.392Z,1010.4
2023-06-13T17:58:53.489Z,1010.4
2023-06-13T18:01:53.783Z,1010.5
2023-06-13T18:04:55.172Z,1010.4
2023-06-13T18:07:53.686Z,1010.5
2023-06-13T18:10:54.735Z,1010.5
2023-06-13T18:14:03.465Z,1010.4
2023-06-13T18:16:53.770Z,1010.4
2023-06-13T18:19:53.460Z,1010.5
2023-06-13T18:22:53.411Z,1010.5
2023-06-13T18:25:53.779Z,1010.4
2023-06-13T18:28:55.019Z,1010.5
2023-06-13T18:31:53.606Z,1010.5
2023-06-13T18:34:53.858Z,1010.6
2023-06-13T18:37:53.599Z,1010.6
2023-06-13T18:40:53.503Z,1010.6
2023-06-13T18:43:53.404Z,1010.6
2023-06-13T18:46:54.436Z,1010.6
2023-06-13T18:49:53.763Z,1010.7
2023-06-13T18:52:53.846Z,1010.6
2023-06-13T18:55:53.422Z,1010.7
2023-06-13T18:58:53.353Z,1010.7
2023-06-13T19:01:53.847Z,1010.7
2023-06-13T19:04:53.875Z,1010.7
2023-06-13T19:07:53.537Z,1010.7
2023-06-13T19:10:53.446Z,1010.7
2023-06-13T19:13:53.740Z,1010.7
2023-06-13T19:16:53.731Z,1010.8
2023-06-13T19:19:53.790Z,1010.8
2023-06-13T19:22:55.704Z,1010.8
2023-06-13T19:25:55.354Z,1010.8
2023-06-13T19:28:58.790Z,1010.8
2023-06-13T19:31:54.067Z,1010.9
2023-06-13T19:34:53.439Z,1010.9
2023-06-13T19:37:53.580Z,1010.9
2023-06-13T19:40:53.531Z,1011.0
2023-06-13T19:43:53.371Z,1011.0
2023-06-13T19:46:53.617Z,1011.1
2023-06-13T19:49:56.249Z,1011.1
2023-06-13T19:53:03.968Z,1011.2
2023-06-13T19:55:54.419Z,1011.2
2023-06-13T19:58:53.537Z,1011.3
2023-06-13T20:01:55.402Z,1011.3
2023-06-13T20:04:54.068Z,1011.3
2023-06-13T20:07:53.836Z,1011.4
2023-06-13T20:10:53.460Z,1011.4
2023-06-13T20:13:53.519Z,1011.5
2023-06-13T20:16:53.747Z,1011.5
2023-06-13T20:19:56.563Z,1011.5
2023-06-13T20:22:53.486Z,1011.5
2023-06-13T20:25:54.043Z,1011.6
2023-06-13T20:28:53.526Z,1011.7
2023-06-13T20:31:53.657Z,1011.7
2023-06-13T20:34:53.499Z,1011.6
2023-06-13T20:37:53.466Z,1011.7
2023-06-13T20:40:53.521Z,1011.7
2023-06-13T20:43:53.646Z,1011.8
2023-06-13T20:46:54.098Z,1011.7
2023-06-13T20:49:53.470Z,1011.8
2023-06-13T20:52:56.690Z,1011.8
2023-06-13T20:55:55.257Z,1011.8
2023-06-13T20:58:54.226Z,1011.8
2023-06-13T21:01:54.156Z,1011.9
2023-06-13T21:04:53.694Z,1012.0
2023-06-13T21:07:54.835Z,1012.0
2023-06-13T21:10:53.555Z,1012.0
2023-06-13T21:13:53.725Z,1012.0
2023-06-13T21:16:53.568Z,1012.0
2023-06-13T21:19:53.473Z,1012.0
2023-06-13T21:22:53.464Z,1012.0
2023-06-13T21:25:53.626Z,1012.1
2023-06-13T21:28:53.458Z,1012.1
2023-06-13T21:31:54.680Z,1012.1
2023-06-13T21:34:53.474Z,1012.1
2023-06-13T21:37:55.279Z,1012.2
2023-06-13T21:40:53.680Z,1012.1
2023-06-13T21:43:53.405Z,1012.1
2023-06-13T21:47:03.610Z,1012.2
2023-06-13T21:49:53.857Z,1012.2
2023-06-13T21:52:53.456Z,1012.2
2023-06-13T21:55:53.745Z,1012.2
2023-06-13T21:58:53.483Z,1012.2
2023-06-13T22:01:55.279Z,1012.2
2023-06-13T22:04:53.958Z,1012.2
2023-06-13T22:07:53.680Z,1012.2
2023-06-13T22:10:53.534Z,1012.2
2023-06-13T22:13:53.536Z,1012.2
2023-06-13T22:16:53.679Z,1012.2
2023-06-13T22:19:53.595Z,1012.2
2023-06-13T22:22:53.515Z,1012.3
2023-06-13T22:25:53.778Z,1012.3
2023-06-13T22:29:03.423Z,1012.3
2023-06-13T22:31:54.185Z,1012.3
2023-06-13T22:34:53.602Z,1012.3
2023-06-13T22:37:53.526Z,1012.3
2023-06-13T22:40:53.807Z,1012.4
2023-06-13T22:43:55.649Z,1012.4
2023-06-13T22:46:53.848Z,1012.5
2023-06-13T22:49:53.659Z,1012.5
2023-06-13T22:52:53.623Z,1012.5
2023-06-13T22:55:53.623Z,1012.5
2023-06-13T22:58:53.596Z,1012.5
2023-06-13T23:01:53.856Z,1012.5
2023-06-13T23:04:53.943Z,1012.6
2023-06-13T23:07:53.539Z,1012.5
2023-06-13T23:10:53.563Z,1012.5
2023-06-13T23:13:53.460Z,1012.6
2023-06-13T23:16:53.885Z,1012.6
2023-06-13T23:19:53.568Z,1012.6
2023-06-13T23:22:53.576Z,1012.6
2023-06-13T23:25:53.685Z,1012.6
2023-06-13T23:28:53.633Z,1012.6
2023-06-13T23:32:03.845Z,1012.7
2023-06-13T23:34:53.492Z,1012.6
2023-06-13T23:37:53.515Z,1012.6
2023-06-13T23:41:05.148Z,1012.6
2023-06-13T23:43:53.474Z,1012.6
2023-06-13T23:46:53.810Z,1012.6
2023-06-13T23:49:53.738Z,1012.6
2023-06-13T23:52:53.456Z,1012.7
2023-06-13T23:55:53.581Z,1012.7
2023-06-13T23:58:53.538Z,1012.7
